createdAt,value
2023-03-02T00:02:41.750Z,95449.00
2023-03-02T00:06:44.887Z,95451.00
2023-03-02T00:10:49.066Z,95449.00
2023-03-02T00:14:51.861Z,95445.00
2023-03-02T00:18:54.671Z,95448.00
2023-03-02T00:22:57.468Z,95445.00
2023-03-02T00:27:01.631Z,95451.00
2023-03-02T00:31:06.200Z,95452.00
2023-03-02T00:35:10.054Z,95439.00
2023-03-02T00:39:12.841Z,95439.00
2023-03-02T00:43:17.051Z,95444.00
2023-03-02T00:47:20.155Z,95444.00
2023-03-02T00:51:23.031Z,95443.00
2023-03-02T00:55:25.848Z,95446.00
2023-03-02T00:59:30.397Z,95447.00
2023-03-02T01:03:40.553Z,95437.00
2023-03-02T01:07:44.331Z,95423.00
2023-03-02T01:11:47.104Z,95423.00
2023-03-02T01:16:00.325Z,95417.00
2023-03-02T01:20:04.756Z,95407.00
2023-03-02T01:24:08.219Z,95417.00
2023-03-02T01:28:10.973Z,95402.00
2023-03-02T01:32:15.155Z,95404.00
2023-03-02T01:36:18.716Z,95384.00
2023-03-02T01:40:21.615Z,95392.00
2023-03-02T01:44:39.651Z,95393.00
2023-03-02T01:48:47.942Z,95384.00
2023-03-02T01:52:56.366Z,95400.00
2023-03-02T01:57:03.345Z,95385.00
2023-03-02T02:01:15.468Z,95385.00
2023-03-02T02:05:24.051Z,95372.00
2023-03-02T02:09:29.081Z,95375.00
2023-03-02T02:13:32.121Z,95385.00
2023-03-02T02:17:35.257Z,95376.00
2023-03-02T02:21:39.482Z,95383.00
2023-03-02T02:25:49.132Z,95380.00
2023-03-02T02:29:54.489Z,95383.00
2023-03-02T02:34:02.260Z,95372.00
2023-03-02T02:38:08.724Z,95371.00
2023-03-02T02:42:15.560Z,95368.00
2023-03-02T02:46:21.180Z,95358.00
2023-03-02T02:50:29.274Z,95350.00
2023-03-02T02:54:33.542Z,95359.00
2023-03-02T02:58:40.763Z,95356.00
2023-03-02T03:02:47.176Z,95357.00
2023-03-02T03:06:53.037Z,95348.00
2023-03-02T03:10:56.177Z,95349.00
2023-03-02T03:14:59.969Z,95345.00
2023-03-02T03:19:09.092Z,95332.00
2023-03-02T03:23:11.940Z,95341.00
2023-03-02T03:27:17.281Z,95337.00
2023-03-02T03:31:21.007Z,95336.00
2023-03-02T03:35:25.365Z,95329.00
2023-03-02T03:39:29.544Z,95341.00
2023-03-02T03:43:32.725Z,95330.00
2023-03-02T03:47:35.798Z,95334.00
2023-03-02T03:51:41.967Z,95337.00
2023-03-02T03:55:45.462Z,95334.00
2023-03-02T03:59:49.752Z,95328.00
2023-03-02T04:03:53.788Z,95342.00
2023-03-02T04:08:02.147Z,95341.00
2023-03-02T04:12:07.962Z,95329.00
2023-03-02T04:16:11.754Z,95329.00
2023-03-02T04:20:16.898Z,95329.00
2023-03-02T04:24:24.554Z,95333.00
2023-03-02T04:28:30.595Z,95333.00
2023-03-02T04:32:33.749Z,95329.00
2023-03-02T04:36:38.904Z,95335.00
2023-03-02T04:40:46.150Z,95330.00
2023-03-02T04:44:49.180Z,95348.00
2023-03-02T04:48:52.038Z,95337.00
2023-03-02T04:52:54.843Z,95341.00
2023-03-02T04:56:58.962Z,95335.00
2023-03-02T05:01:02.350Z,95342.00
2023-03-02T05:05:05.653Z,95340.00
2023-03-02T05:09:08.963Z,95341.00
2023-03-02T05:13:13.129Z,95345.00
2023-03-02T05:17:15.947Z,95334.00
2023-03-02T05:21:19.852Z,95349.00
2023-03-02T05:25:23.032Z,95340.00
2023-03-02T05:29:27.207Z,95338.00
2023-03-02T05:33:30.751Z,95335.00
2023-03-02T05:37:33.644Z,95340.00
2023-03-02T05:41:37.818Z,95344.00
2023-03-02T05:45:41.952Z,95344.00
2023-03-02T05:49:44.772Z,95336.00
2023-03-02T05:53:48.534Z,95345.00
2023-03-02T05:57:51.379Z,95350.00
2023-03-02T06:01:59.413Z,95350.00
2023-03-02T06:06:02.184Z,95346.00
2023-03-02T06:10:05.390Z,95348.00
2023-03-02T06:14:08.114Z,95350.00
2023-03-02T06:18:12.555Z,95349.00
2023-03-02T06:22:15.359Z,95341.00
2023-03-02T06:26:18.124Z,95353.00
2023-03-02T06:30:23.297Z,95359.00
2023-03-02T06:34:29.327Z,95367.00
2023-03-02T06:38:32.049Z,95360.00
2023-03-02T06:42:34.821Z,95362.00
2023-03-02T06:46:37.829Z,95360.00
2023-03-02T06:50:41.966Z,95364.00
2023-03-02T06:54:44.743Z,95370.00
2023-03-02T06:58:47.589Z,95368.00
2023-03-02T07:02:50.374Z,95366.00
2023-03-02T07:06:54.543Z,95363.00
2023-03-02T07:10:57.315Z,95369.00
2023-03-02T07:15:00.139Z,95382.00
2023-03-02T07:19:03.011Z,95383.00
2023-03-02T07:23:07.513Z,95387.00
2023-03-02T07:27:10.267Z,95390.00
2023-03-02T07:31:13.309Z,95386.00
2023-03-02T07:35:17.061Z,95402.00
2023-03-02T07:39:21.798Z,95404.00
2023-03-02T07:43:26.008Z,95408.00
2023-03-02T07:47:28.773Z,95408.00
2023-03-02T07:51:31.978Z,95406.00
2023-03-02T07:55:36.297Z,95417.00
2023-03-02T07:59:39.193Z,95419.00
2023-03-02T08:03:42.056Z,95426.00
2023-03-02T08:07:46.908Z,95411.00
2023-03-02T08:11:51.040Z,95408.00
2023-03-02T08:16:00.805Z,95422.00
2023-03-02T08:20:03.968Z,95428.00
2023-03-02T08:24:07.202Z,95434.00
2023-03-02T08:28:11.364Z,95436.00
2023-03-02T08:32:14.345Z,95439.00
2023-03-02T08:36:19.057Z,95433.00
2023-03-02T08:40:21.876Z,95424.00
2023-03-02T08:44:26.283Z,95436.00
2023-03-02T08:48:30.101Z,95445.00
2023-03-02T08:52:34.338Z,95441.00
2023-03-02T08:56:39.233Z,95440.00
2023-03-02T09:00:44.067Z,95443.00
2023-03-02T09:04:46.944Z,95447.00
2023-03-02T09:08:50.360Z,95453.00
2023-03-02T09:12:53.140Z,95462.00
2023-03-02T09:16:57.382Z,95464.00
2023-03-02T09:21:00.284Z,95464.00
2023-03-02T09:25:03.158Z,95461.00
2023-03-02T09:29:07.069Z,95471.00
2023-03-02T09:33:11.253Z,95471.00
2023-03-02T09:37:14.067Z,95472.00
2023-03-02T09:41:58.300Z,95475.00
2023-03-02T09:46:16.280Z,95487.00
2023-03-02T09:50:30.322Z,95497.00
2023-03-02T09:54:32.933Z,95499.00
2023-03-02T09:58:39.413Z,95495.00
2023-03-02T10:02:48.964Z,95497.00
2023-03-02T10:06:58.801Z,95507.00
2023-03-02T10:11:08.950Z,95507.00
2023-03-02T10:15:15.746Z,95502.00
2023-03-02T10:19:25.057Z,95502.00
2023-03-02T10:23:39.857Z,95517.00
2023-03-02T10:27:45.220Z,95520.00
2023-03-02T10:31:52.823Z,95520.00
2023-03-02T10:35:55.845Z,95523.00
2023-03-02T10:40:00.252Z,95539.00
2023-03-02T10:44:06.855Z,95533.00
2023-03-02T10:48:13.518Z,95532.00
2023-03-02T10:52:18.148Z,95527.00
2023-03-02T10:56:22.878Z,95536.00
2023-03-02T11:00:28.586Z,95533.00
2023-03-02T11:04:31.512Z,95540.00
2023-03-02T11:08:34.419Z,95539.00
2023-03-02T11:12:38.726Z,95550.00
2023-03-02T11:16:41.572Z,95543.00
2023-03-02T11:20:48.474Z,95540.00
2023-03-02T11:24:56.136Z,95538.00
2023-03-02T11:29:05.213Z,95526.00
2023-03-02T11:33:13.157Z,95534.00
2023-03-02T11:37:19.590Z,95525.00
2023-03-02T11:41:29.840Z,95519.00
2023-03-02T11:45:37.886Z,95514.00
2023-03-02T11:49:43.562Z,95516.00
2023-03-02T11:53:51.363Z,95521.00
2023-03-02T11:57:56.228Z,95530.00
2023-03-02T12:02:01.834Z,95524.00
2023-03-02T12:06:07.979Z,95523.00
2023-03-02T12:10:28.495Z,95512.00
2023-03-02T12:14:38.912Z,95526.00
2023-03-02T12:18:48.834Z,95525.00
2023-03-02T12:22:52.363Z,95518.00
2023-03-02T12:27:03.377Z,95526.00
2023-03-02T12:31:11.433Z,95523.00
2023-03-02T12:35:20.486Z,95520.00
2023-03-02T12:39:35.119Z,95511.00
2023-03-02T12:43:38.850Z,95512.00
2023-03-02T12:47:45.679Z,95511.00
2023-03-02T12:51:53.987Z,95519.00
2023-03-02T12:55:57.490Z,95517.00
2023-03-02T13:00:02.473Z,95516.00
2023-03-02T13:04:05.350Z,95512.00
2023-03-02T13:08:17.156Z,95521.00
2023-03-02T13:12:20.111Z,95516.00
2023-03-02T13:16:25.435Z,95513.00
2023-03-02T13:20:30.267Z,95509.00
2023-03-02T13:24:44.767Z,95512.00
2023-03-02T13:28:47.627Z,95512.00
2023-03-02T13:32:51.262Z,95520.00
2023-03-02T13:36:54.510Z,95506.00
2023-03-02T13:40:58.766Z,95513.00
2023-03-02T13:45:20.542Z,95514.00
2023-03-02T13:49:31.283Z,95506.00
2023-03-02T13:53:38.021Z,95506.00
2023-03-02T13:57:42.587Z,95512.00
2023-03-02T14:01:45.741Z,95506.00
2023-03-02T14:05:48.561Z,95500.00
2023-03-02T14:09:51.294Z,95497.00
2023-03-02T14:13:56.193Z,95503.00
2023-03-02T14:17:59.112Z,95502.00
2023-03-02T14:22:01.903Z,95489.00
2023-03-02T14:26:20.332Z,95496.00
2023-03-02T14:30:24.516Z,95491.00
2023-03-02T14:34:27.952Z,95488.00
2023-03-02T14:38:31.134Z,95487.00
2023-03-02T14:42:34.018Z,95484.00
2023-03-02T14:46:38.315Z,95483.00
2023-03-02T14:50:44.625Z,95481.00
2023-03-02T14:54:51.999Z,95485.00
2023-03-02T14:58:55.104Z,95485.00
2023-03-02T15:02:59.509Z,95480.00
2023-03-02T15:07:02.394Z,95474.00
2023-03-02T15:11:05.230Z,95486.00
2023-03-02T15:15:09.184Z,95486.00
2023-03-02T15:19:13.346Z,95484.00
2023-03-02T15:23:16.085Z,95486.00
2023-03-02T15:27:18.830Z,95483.00
2023-03-02T15:31:21.899Z,95489.00
2023-03-02T15:35:26.527Z,95483.00
2023-03-02T15:39:29.216Z,95491.00
2023-03-02T15:43:32.025Z,95487.00
2023-03-02T15:47:34.828Z,95487.00
2023-03-02T15:51:38.963Z,95496.00
2023-03-02T15:55:42.504Z,95506.00
2023-03-02T15:59:46.238Z,95504.00
2023-03-02T16:03:49.063Z,95504.00
2023-03-02T16:07:53.278Z,95514.00
2023-03-02T16:11:56.160Z,95509.00
2023-03-02T16:16:01.543Z,95509.00
2023-03-02T16:20:04.615Z,95513.00
2023-03-02T16:24:09.726Z,95510.00
2023-03-02T16:28:12.922Z,95508.00
2023-03-02T16:32:15.897Z,95521.00
2023-03-02T16:36:18.823Z,95515.00
2023-03-02T16:40:23.615Z,95509.00
2023-03-02T16:44:26.879Z,95535.00
2023-03-02T16:48:29.723Z,95531.00
2023-03-02T16:52:32.856Z,95526.00
2023-03-02T16:56:37.095Z,95541.00
2023-03-02T17:00:39.989Z,95538.00
2023-03-02T17:04:43.084Z,95541.00
2023-03-02T17:08:45.954Z,95552.00
2023-03-02T17:12:50.528Z,95554.00
2023-03-02T17:16:53.637Z,95559.00
2023-03-02T17:20:58.510Z,95553.00
2023-03-02T17:25:03.543Z,95553.00
2023-03-02T17:29:08.782Z,95555.00
2023-03-02T17:33:12.089Z,95559.00
2023-03-02T17:37:17.280Z,95572.00
2023-03-02T17:41:21.389Z,95570.00
2023-03-02T17:45:27.557Z,95578.00
2023-03-02T17:49:30.634Z,95581.00
2023-03-02T17:53:33.504Z,95574.00
2023-03-02T17:57:37.103Z,95579.00
2023-03-02T18:01:43.420Z,95583.00
2023-03-02T18:05:46.060Z,95590.00
2023-03-02T18:09:48.900Z,95582.00
2023-03-02T18:13:54.709Z,95589.00
2023-03-02T18:17:58.939Z,95592.00
2023-03-02T18:22:01.792Z,95592.00
2023-03-02T18:26:04.833Z,95581.00
2023-03-02T18:30:08.966Z,95590.00
2023-03-02T18:34:13.288Z,95594.00
2023-03-02T18:38:16.093Z,95601.00
2023-03-02T18:42:19.224Z,95588.00
2023-03-02T18:46:24.150Z,95599.00
2023-03-02T18:50:30.151Z,95591.00
2023-03-02T18:54:32.986Z,95592.00
2023-03-02T18:58:36.023Z,95597.00
2023-03-02T19:02:38.820Z,95599.00
2023-03-02T19:06:43.572Z,95593.00
2023-03-02T19:10:46.364Z,95605.00
2023-03-02T19:14:49.125Z,95602.00
2023-03-02T19:18:52.372Z,95612.00
2023-03-02T19:22:56.692Z,95605.00
2023-03-02T19:26:59.951Z,95605.00
2023-03-02T19:31:06.718Z,95619.00
2023-03-02T19:35:13.607Z,95628.00
2023-03-02T19:39:18.038Z,95620.00
2023-03-02T19:43:21.355Z,95633.00
2023-03-02T19:47:24.587Z,95620.00
2023-03-02T19:51:27.653Z,95622.00
2023-03-02T19:55:31.859Z,95625.00
2023-03-02T19:59:36.595Z,95631.00
2023-03-02T20:03:39.534Z,95627.00
2023-03-02T20:07:43.603Z,95626.00
2023-03-02T20:11:48.277Z,95628.00
2023-03-02T20:15:51.886Z,95628.00
2023-03-02T20:19:55.936Z,95624.00
2023-03-02T20:23:59.379Z,95629.00
2023-03-02T20:28:05.935Z,95625.00
2023-03-02T20:32:11.236Z,95627.00
2023-03-02T20:36:14.901Z,95623.00
2023-03-02T20:40:19.573Z,95630.00
2023-03-02T20:44:25.456Z,95624.00
2023-03-02T20:48:28.601Z,95625.00
2023-03-02T20:52:31.588Z,95624.00
2023-03-02T20:56:34.647Z,95624.00
2023-03-02T21:00:39.994Z,95628.00
2023-03-02T21:04:43.669Z,95627.00
2023-03-02T21:08:47.405Z,95629.00
2023-03-02T21:12:50.624Z,95629.00
2023-03-02T21:16:55.775Z,95623.00
2023-03-02T21:20:58.704Z,95629.00
2023-03-02T21:25:02.433Z,95627.00
2023-03-02T21:29:06.220Z,95631.00
2023-03-02T21:33:10.476Z,95623.00
2023-03-02T21:37:13.320Z,95624.00
2023-03-02T21:41:16.125Z,95620.00
2023-03-02T21:45:19.167Z,95624.00
2023-03-02T21:49:24.390Z,95624.00
2023-03-02T21:53:27.314Z,95621.00
2023-03-02T21:57:30.448Z,95619.00
2023-03-02T22:01:33.859Z,95624.00
2023-03-02T22:05:39.098Z,95626.00
2023-03-02T22:09:41.896Z,95636.00
2023-03-02T22:13:44.723Z,95618.00
2023-03-02T22:17:47.814Z,95625.00
2023-03-02T22:21:52.793Z,95613.00
2023-03-02T22:26:11.695Z,95628.00
2023-03-02T22:30:21.637Z,95627.00
2023-03-02T22:34:26.448Z,95626.00
2023-03-02T22:38:31.858Z,95629.00
2023-03-02T22:42:34.924Z,95621.00
2023-03-02T22:46:37.765Z,95632.00
2023-03-02T22:50:40.668Z,95634.00
2023-03-02T22:54:46.042Z,95629.00
2023-03-02T22:58:50.141Z,95631.00
2023-03-02T23:02:55.525Z,95632.00
2023-03-02T23:07:00.567Z,95621.00
2023-03-02T23:11:13.306Z,95609.00
2023-03-02T23:15:20.430Z,95624.00
2023-03-02T23:19:23.450Z,95612.00
2023-03-02T23:23:28.664Z,95617.00
2023-03-02T23:27:32.824Z,95623.00
2023-03-02T23:31:35.678Z,95622.00
2023-03-02T23:35:38.568Z,95619.00
2023-03-02T23:39:41.366Z,95619.00
2023-03-02T23:43:45.722Z,95616.00
2023-03-02T23:47:48.708Z,95622.00
2023-03-02T23:51:51.515Z,95616.00
2023-03-02T23:55:56.162Z,95629.00
